Terminal Aerodrome Forecast
Issued by NWS

Home | Current Version | Previous Version | Text Only | Print | Product List | Glossary On
Versions: 1 2 3 4 5 6 7 8 9 10 11 12 13 14
811
FTUS44 KTSA 131736
TAFBVO
TAF
KBVO 131736Z 1318/1418 06010KT P6SM SCT250
     FM132100 13010KT P6SM FEW250
     FM140300 14010KT P6SM OVC050
     FM141200 15005KT P6SM OVC015
     FM141500 11004KT 4SM BR OVC007=

USA.gov is the U.S. government's official web portal to all federal, state and local government web resources and services.